Time;durP1;ratioP1;P1;durP2;ratioP2;P2;SDS_P1;SDS_P2;PMS_P1;PMS_P2;Temp;Humidity;BMP_temperature;BMP_pressure;BME280_temperature;BME280_humidity;BME280_pressure;Samples;Min_cycle;Max_cycle;Signal;HPM_P1;HPM_P2
2023/07/25 00:00:37;;;;;;;1.95;1.30;;;;;;;;;;5100339;28;20051;-84
2023/07/25 00:03:05;;;;;;;1.27;1.17;;;;;;;;;;5100114;28;20044;-84
2023/07/25 00:05:32;;;;;;;1.70;1.30;;;;;;;;;;5100757;28;20572;-84
2023/07/25 00:07:58;;;;;;;1.67;1.23;;;;;;;;;;5100969;28;20037;-84
2023/07/25 00:10:25;;;;;;;2.10;1.40;;;;;;;;;;5099120;28;20165;-84
2023/07/25 00:12:53;;;;;;;2.28;1.40;;;;;;;;;;5098548;28;20058;-84
2023/07/25 00:15:20;;;;;;;3.55;1.50;;;;;;;;;;5099046;28;20501;-84
2023/07/25 00:17:46;;;;;;;1.40;1.20;;;;;;;;;;5099860;28;20086;-84
2023/07/25 00:20:14;;;;;;;1.85;1.50;;;;;;;;;;5100680;28;20044;-84
2023/07/25 00:22:40;;;;;;;5.20;1.27;;;;;;;;;;5100871;28;20044;-84
2023/07/25 00:25:08;;;;;;;2.55;1.13;;;;;;;;;;5100109;28;20048;-85
2023/07/25 00:27:35;;;;;;;1.60;1.48;;;;;;;;;;5099897;28;20452;-84
2023/07/25 00:30:02;;;;;;;2.67;1.40;;;;;;;;;;5101597;28;20043;-84
2023/07/25 00:32:28;;;;;;;1.23;1.13;;;;;;;;;;5102930;28;20081;-83
2023/07/25 00:34:55;;;;;;;1.95;1.35;;;;;;;;;;5104604;28;20052;-83
2023/07/25 00:37:22;;;;;;;2.13;1.42;;;;;;;;;;5105251;28;20048;-84
2023/07/25 00:39:52;;;;;;;3.13;1.42;;;;;;;;;;5104556;28;20044;-84
2023/07/25 00:42:19;;;;;;;2.13;1.35;;;;;;;;;;5105888;28;20213;-84
2023/07/25 00:44:46;;;;;;;1.77;1.55;;;;;;;;;;5104634;28;20112;-84
2023/07/25 00:47:12;;;;;;;1.60;1.20;;;;;;;;;;5105045;28;20048;-84
2023/07/25 00:49:40;;;;;;;1.58;1.40;;;;;;;;;;5104855;28;20036;-83
2023/07/25 00:52:07;;;;;;;1.75;1.30;;;;;;;;;;5104160;28;20574;-84
2023/07/25 00:54:38;;;;;;;2.28;1.50;;;;;;;;;;5104204;28;20051;-84
2023/07/25 00:57:05;;;;;;;1.40;1.30;;;;;;;;;;5104346;28;20054;-84
2023/07/25 00:59:32;;;;;;;1.20;1.10;;;;;;;;;;5104148;28;20411;-84
2023/07/25 01:01:59;;;;;;;2.13;1.27;;;;;;;;;;5104332;28;20054;-84
2023/07/25 01:04:26;;;;;;;1.48;1.27;;;;;;;;;;5104933;28;20523;-84
2023/07/25 01:06:53;;;;;;;1.65;1.50;;;;;;;;;;5104271;28;20048;-83
2023/07/25 01:09:37;;;;;;;2.10;1.40;;;;;;;;;;5105006;28;20050;-84
2023/07/25 01:12:06;;;;;;;2.55;1.48;;;;;;;;;;5107684;28;20044;-84
2023/07/25 01:14:33;;;;;;;4.80;1.90;;;;;;;;;;5105566;28;20054;-84
2023/07/25 01:17:02;;;;;;;2.88;1.60;;;;;;;;;;5108198;28;20135;-84
2023/07/25 01:19:31;;;;;;;1.75;1.58;;;;;;;;;;5105166;28;20052;-85
2023/07/25 01:21:57;;;;;;;2.05;1.40;;;;;;;;;;5106055;28;20044;-86
2023/07/25 01:24:25;;;;;;;4.57;1.63;;;;;;;;;;5106532;28;20055;-85
2023/07/25 01:26:52;;;;;;;2.75;1.70;;;;;;;;;;5106411;28;20491;-84
2023/07/25 01:29:19;;;;;;;1.40;1.30;;;;;;;;;;5108074;28;20067;-84
2023/07/25 01:31:45;;;;;;;2.72;1.58;;;;;;;;;;5108200;28;20044;-84
2023/07/25 01:34:12;;;;;;;2.65;1.45;;;;;;;;;;5108833;28;20127;-84
2023/07/25 01:36:38;;;;;;;2.67;1.45;;;;;;;;;;5109366;28;20044;-85
2023/07/25 01:39:05;;;;;;;3.97;1.85;;;;;;;;;;5109543;28;20113;-85
2023/07/25 01:41:33;;;;;;;1.98;1.70;;;;;;;;;;5109847;28;20039;-85
2023/07/25 01:44:00;;;;;;;1.70;1.60;;;;;;;;;;5110498;28;20046;-85
2023/07/25 01:46:26;;;;;;;3.08;1.67;;;;;;;;;;5111900;28;20048;-85
2023/07/25 01:48:53;;;;;;;1.55;1.45;;;;;;;;;;5112681;28;20063;-85
2023/07/25 01:51:19;;;;;;;3.00;1.60;;;;;;;;;;5093744;28;20058;-85
2023/07/25 01:53:46;;;;;;;4.60;2.22;;;;;;;;;;5093744;28;20152;-84
2023/07/25 01:56:12;;;;;;;2.50;1.75;;;;;;;;;;5081248;28;20067;-84
2023/07/25 01:58:40;;;;;;;2.60;1.60;;;;;;;;;;5081543;28;20071;-83
2023/07/25 02:01:07;;;;;;;1.75;1.50;;;;;;;;;;5081800;28;20044;-83
2023/07/25 02:03:33;;;;;;;2.00;1.80;;;;;;;;;;5082186;28;20041;-83
2023/07/25 02:06:00;;;;;;;2.20;2.00;;;;;;;;;;5082289;28;20048;-83
2023/07/25 02:08:26;;;;;;;3.22;1.95;;;;;;;;;;5082385;28;20075;-84
2023/07/25 02:10:53;;;;;;;3.00;1.70;;;;;;;;;;5082325;28;20041;-83
2023/07/25 02:13:19;;;;;;;1.75;1.63;;;;;;;;;;5082670;28;20056;-83
2023/07/25 02:15:47;;;;;;;1.60;1.50;;;;;;;;;;5082799;28;20079;-84
2023/07/25 02:18:14;;;;;;;1.90;1.70;;;;;;;;;;5081661;28;20062;-83
2023/07/25 02:20:40;;;;;;;1.98;1.50;;;;;;;;;;5081725;28;20444;-83
2023/07/25 02:23:07;;;;;;;1.83;1.60;;;;;;;;;;5081640;28;20047;-84
2023/07/25 02:25:34;;;;;;;2.20;2.00;;;;;;;;;;5081550;28;20108;-83
2023/07/25 02:28:00;;;;;;;1.90;1.52;;;;;;;;;;5080561;28;20059;-83
2023/07/25 02:30:27;;;;;;;4.50;1.80;;;;;;;;;;5080989;28;20045;-84
2023/07/25 02:32:55;;;;;;;3.05;1.50;;;;;;;;;;5081008;28;20049;-84
2023/07/25 02:35:21;;;;;;;2.58;1.90;;;;;;;;;;5080681;28;20111;-84
2023/07/25 02:37:48;;;;;;;2.35;1.77;;;;;;;;;;5080593;28;20500;-83
2023/07/25 02:40:14;;;;;;;2.15;1.65;;;;;;;;;;5081211;28;20423;-83
2023/07/25 02:42:41;;;;;;;2.15;1.70;;;;;;;;;;5082435;28;20439;-83
2023/07/25 02:45:08;;;;;;;1.75;1.40;;;;;;;;;;5081663;28;20083;-84
2023/07/25 02:47:34;;;;;;;2.40;1.60;;;;;;;;;;5081319;28;20041;-83
2023/07/25 02:50:02;;;;;;;2.17;1.60;;;;;;;;;;5081408;28;20045;-84
2023/07/25 02:52:29;;;;;;;2.85;1.77;;;;;;;;;;5080847;28;20459;-83
2023/07/25 02:54:55;;;;;;;3.38;1.92;;;;;;;;;;5080588;28;20427;-84
2023/07/25 02:57:22;;;;;;;1.90;1.52;;;;;;;;;;5080318;28;20439;-84
2023/07/25 02:59:49;;;;;;;3.67;2.00;;;;;;;;;;5080397;28;20045;-83
2023/07/25 03:02:15;;;;;;;3.00;1.70;;;;;;;;;;5081036;28;20480;-83
2023/07/25 03:04:42;;;;;;;2.25;1.95;;;;;;;;;;5081312;28;20051;-83
2023/07/25 03:07:10;;;;;;;2.55;1.98;;;;;;;;;;5080996;28;20104;-84
2023/07/25 03:09:37;;;;;;;2.00;1.70;;;;;;;;;;5082397;28;20045;-84
2023/07/25 03:12:04;;;;;;;2.53;1.88;;;;;;;;;;5080252;28;20049;-83
2023/07/25 03:14:31;;;;;;;2.15;1.83;;;;;;;;;;5080780;28;20049;-83
2023/07/25 03:16:58;;;;;;;3.25;1.85;;;;;;;;;;5080936;28;20045;-83
2023/07/25 03:19:24;;;;;;;2.42;1.75;;;;;;;;;;5080116;28;20053;-84
2023/07/25 03:21:51;;;;;;;2.85;2.08;;;;;;;;;;5080103;28;20050;-83
2023/07/25 03:24:19;;;;;;;3.80;2.15;;;;;;;;;;5080511;28;20127;-83
2023/07/25 03:26:46;;;;;;;2.28;1.80;;;;;;;;;;5082189;28;20108;-83
2023/07/25 03:29:12;;;;;;;2.45;1.70;;;;;;;;;;5080341;28;20044;-83
2023/07/25 03:31:39;;;;;;;2.33;1.92;;;;;;;;;;5081373;28;20108;-83
2023/07/25 03:34:07;;;;;;;2.35;2.00;;;;;;;;;;5080444;28;20058;-83
2023/07/25 03:36:33;;;;;;;2.63;2.13;;;;;;;;;;5079748;28;20068;-84
2023/07/25 03:39:00;;;;;;;2.75;2.00;;;;;;;;;;5081214;28;20166;-84
2023/07/25 03:41:28;;;;;;;4.07;2.45;;;;;;;;;;5079421;28;20411;-83
2023/07/25 03:43:54;;;;;;;2.22;1.90;;;;;;;;;;5080178;28;20044;-83
2023/07/25 03:46:21;;;;;;;3.65;2.40;;;;;;;;;;5079967;28;20048;-85
2023/07/25 03:48:47;;;;;;;2.85;2.20;;;;;;;;;;5080562;28;20044;-84
2023/07/25 03:51:14;;;;;;;3.10;2.20;;;;;;;;;;5080144;28;20052;-83
2023/07/25 03:53:41;;;;;;;2.25;2.00;;;;;;;;;;5082372;28;20419;-84
2023/07/25 03:56:08;;;;;;;2.75;2.20;;;;;;;;;;5081208;28;20090;-83
2023/07/25 03:58:36;;;;;;;3.10;2.03;;;;;;;;;;5081615;28;20051;-83
2023/07/25 04:01:02;;;;;;;2.40;2.05;;;;;;;;;;5080012;28;20135;-84
2023/07/25 04:03:29;;;;;;;3.05;2.28;;;;;;;;;;5081542;28;20122;-84
2023/07/25 04:05:55;;;;;;;2.97;2.13;;;;;;;;;;5082016;28;20044;-83
2023/07/25 04:08:22;;;;;;;2.72;2.25;;;;;;;;;;5086858;28;20071;-84
2023/07/25 04:10:49;;;;;;;3.38;2.25;;;;;;;;;;5087095;28;20074;-84
2023/07/25 04:13:15;;;;;;;4.85;2.60;;;;;;;;;;5087460;28;20051;-83
2023/07/25 04:15:43;;;;;;;3.40;2.45;;;;;;;;;;5086434;28;20048;-84
2023/07/25 04:18:10;;;;;;;2.28;2.08;;;;;;;;;;5086456;28;20049;-83
2023/07/25 04:20:36;;;;;;;4.68;2.70;;;;;;;;;;5086943;28;20048;-83
2023/07/25 04:23:03;;;;;;;4.47;2.50;;;;;;;;;;5086625;28;20052;-83
2023/07/25 04:25:29;;;;;;;4.70;2.55;;;;;;;;;;5086583;28;20055;-84
2023/07/25 04:27:56;;;;;;;4.03;2.80;;;;;;;;;;5087637;28;20045;-84
2023/07/25 04:30:22;;;;;;;2.95;2.42;;;;;;;;;;5087332;28;20132;-84
2023/07/25 04:32:50;;;;;;;4.07;2.83;;;;;;;;;;5087144;28;20154;-84
2023/07/25 04:35:17;;;;;;;4.55;3.08;;;;;;;;;;5087579;28;20058;-84
2023/07/25 04:37:43;;;;;;;3.72;3.10;;;;;;;;;;5090171;28;20044;-84
2023/07/25 04:40:11;;;;;;;5.47;3.00;;;;;;;;;;5088070;28;20048;-85
2023/07/25 04:42:37;;;;;;;4.13;3.03;;;;;;;;;;5088617;28;20055;-84
2023/07/25 04:45:05;;;;;;;4.18;3.00;;;;;;;;;;5088809;28;20057;-84
2023/07/25 04:47:31;;;;;;;3.35;3.05;;;;;;;;;;5090223;28;20413;-84
2023/07/25 04:49:59;;;;;;;5.13;3.88;;;;;;;;;;5090624;28;20063;-83
2023/07/25 04:52:26;;;;;;;4.20;3.25;;;;;;;;;;5091072;28;20055;-83
2023/07/25 04:54:57;;;;;;;6.07;3.38;;;;;;;;;;5091840;28;20055;-84
2023/07/25 04:57:23;;;;;;;4.55;3.28;;;;;;;;;;5098315;28;20415;-86
2023/07/25 04:59:50;;;;;;;6.00;3.47;;;;;;;;;;5094121;28;20048;-85
2023/07/25 05:02:18;;;;;;;6.75;3.60;;;;;;;;;;5112829;28;20052;-85
2023/07/25 05:04:44;;;;;;;4.50;3.58;;;;;;;;;;5115636;28;20050;-86
2023/07/25 05:07:13;;;;;;;4.78;3.75;;;;;;;;;;5119299;28;20032;-85
2023/07/25 05:09:40;;;;;;;7.88;4.30;;;;;;;;;;5104026;28;20047;-84
2023/07/25 05:12:13;;;;;;;6.95;4.03;;;;;;;;;;5103520;28;20044;-83
2023/07/25 05:14:40;;;;;;;5.97;4.00;;;;;;;;;;5102320;28;20050;-84
2023/07/25 05:17:07;;;;;;;4.55;3.55;;;;;;;;;;5102623;28;20046;-83
2023/07/25 05:19:34;;;;;;;6.50;3.72;;;;;;;;;;5102341;28;20058;-84
2023/07/25 05:22:00;;;;;;;5.80;4.03;;;;;;;;;;5103020;28;20517;-84
2023/07/25 05:24:28;;;;;;;5.03;3.75;;;;;;;;;;5104931;28;20436;-83
2023/07/25 05:26:55;;;;;;;5.47;3.67;;;;;;;;;;5103263;28;20063;-83
2023/07/25 05:29:21;;;;;;;4.03;3.42;;;;;;;;;;5102703;28;20471;-83
2023/07/25 05:31:48;;;;;;;4.05;3.63;;;;;;;;;;5102628;28;20044;-83
2023/07/25 05:34:14;;;;;;;7.00;3.97;;;;;;;;;;5103202;28;20055;-84
2023/07/25 05:36:41;;;;;;;6.18;4.40;;;;;;;;;;5103090;28;20054;-83
2023/07/25 05:39:07;;;;;;;6.95;4.97;;;;;;;;;;5103521;28;20048;-83
2023/07/25 05:41:35;;;;;;;5.88;4.70;;;;;;;;;;5102380;28;20051;-84
2023/07/25 05:44:02;;;;;;;6.97;4.88;;;;;;;;;;5102580;28;20052;-83
2023/07/25 05:46:28;;;;;;;6.60;5.07;;;;;;;;;;5102931;28;20112;-83
2023/07/25 05:48:55;;;;;;;9.25;5.28;;;;;;;;;;5102484;28;20075;-84
2023/07/25 05:51:21;;;;;;;8.50;5.47;;;;;;;;;;5102600;28;20708;-84
2023/07/25 05:53:48;;;;;;;8.02;6.03;;;;;;;;;;5102767;28;20134;-83
2023/07/25 05:56:14;;;;;;;7.65;6.15;;;;;;;;;;5082433;28;20041;-84
2023/07/25 05:58:42;;;;;;;6.80;5.20;;;;;;;;;;5082690;28;20401;-84
2023/07/25 06:01:09;;;;;;;7.00;5.57;;;;;;;;;;5082710;28;20063;-84
2023/07/25 06:03:36;;;;;;;9.93;6.43;;;;;;;;;;5082905;28;20052;-84
2023/07/25 06:06:03;;;;;;;8.77;5.93;;;;;;;;;;5082593;28;20045;-83
2023/07/25 06:08:29;;;;;;;10.93;6.57;;;;;;;;;;5082446;28;20055;-83
2023/07/25 06:10:56;;;;;;;8.27;6.30;;;;;;;;;;5083080;28;20055;-85
2023/07/25 06:13:23;;;;;;;10.32;6.53;;;;;;;;;;5083142;28;20049;-84
2023/07/25 06:15:50;;;;;;;7.53;6.20;;;;;;;;;;5082340;28;20050;-84
2023/07/25 06:18:17;;;;;;;11.13;8.05;;;;;;;;;;5082792;28;20139;-85
2023/07/25 06:20:44;;;;;;;9.27;6.70;;;;;;;;;;5083503;28;20104;-87
2023/07/25 06:23:10;;;;;;;9.18;6.55;;;;;;;;;;5082832;28;20049;-85
2023/07/25 06:25:37;;;;;;;9.65;7.10;;;;;;;;;;5083102;28;20059;-85
2023/07/25 06:28:05;;;;;;;7.88;6.55;;;;;;;;;;5081758;28;20040;-85
2023/07/25 06:30:32;;;;;;;12.00;6.60;;;;;;;;;;5081296;28;20076;-86
2023/07/25 06:33:02;;;;;;;7.95;6.25;;;;;;;;;;5082836;28;20048;-85
2023/07/25 06:35:28;;;;;;;9.82;6.53;;;;;;;;;;5081865;28;20076;-86
2023/07/25 06:37:55;;;;;;;9.52;6.47;;;;;;;;;;5083111;28;20056;-84
2023/07/25 06:40:22;;;;;;;10.20;6.72;;;;;;;;;;5080502;28;20107;-85
2023/07/25 06:42:48;;;;;;;9.60;6.70;;;;;;;;;;5095831;28;20097;-85
2023/07/25 06:45:16;;;;;;;11.93;6.68;;;;;;;;;;5088263;28;20052;-85
2023/07/25 06:47:43;;;;;;;8.65;6.22;;;;;;;;;;5083673;28;20135;-85
2023/07/25 06:50:11;;;;;;;7.60;6.10;;;;;;;;;;5091376;28;20051;-84
2023/07/25 06:52:38;;;;;;;9.00;6.13;;;;;;;;;;5089330;28;20069;-84
2023/07/25 06:55:06;;;;;;;8.23;6.05;;;;;;;;;;5104876;28;20115;-85
2023/07/25 06:57:32;;;;;;;9.18;6.55;;;;;;;;;;5103528;28;20446;-85
2023/07/25 06:59:59;;;;;;;7.80;5.75;;;;;;;;;;5106042;28;20048;-85
2023/07/25 07:02:26;;;;;;;7.53;6.35;;;;;;;;;;5081393;28;20397;-85
2023/07/25 07:04:54;;;;;;;7.18;6.15;;;;;;;;;;5090499;28;20064;-85
2023/07/25 07:07:22;;;;;;;7.35;5.78;;;;;;;;;;5083120;28;20063;-85
2023/07/25 07:09:48;;;;;;;7.32;6.05;;;;;;;;;;5083568;28;20048;-85
2023/07/25 07:12:16;;;;;;;8.30;6.03;;;;;;;;;;5092798;28;20083;-85
2023/07/25 07:14:42;;;;;;;8.18;6.03;;;;;;;;;;5084944;28;20048;-85
2023/07/25 07:17:10;;;;;;;10.73;6.38;;;;;;;;;;5083544;28;20068;-85
2023/07/25 07:19:38;;;;;;;8.40;6.25;;;;;;;;;;5082096;28;20079;-84
2023/07/25 07:22:06;;;;;;;9.40;6.55;;;;;;;;;;5081969;28;20067;-85
2023/07/25 07:24:34;;;;;;;7.35;5.55;;;;;;;;;;5084196;28;20495;-85
2023/07/25 07:27:01;;;;;;;6.72;5.78;;;;;;;;;;5095788;28;20068;-85
2023/07/25 07:29:28;;;;;;;8.73;5.35;;;;;;;;;;5092266;28;20411;-85
2023/07/25 07:31:54;;;;;;;8.57;5.80;;;;;;;;;;5095767;28;20412;-84
2023/07/25 07:34:21;;;;;;;7.30;5.38;;;;;;;;;;5100806;28;20058;-80
2023/07/25 07:36:48;;;;;;;7.07;5.60;;;;;;;;;;5090636;28;20394;-84
2023/07/25 07:39:15;;;;;;;9.60;5.13;;;;;;;;;;5092829;28;20052;-85
2023/07/25 07:41:43;;;;;;;7.05;5.45;;;;;;;;;;5087453;28;20069;-85
2023/07/25 07:44:10;;;;;;;7.38;5.47;;;;;;;;;;5100395;28;20060;-86
2023/07/25 07:46:37;;;;;;;4.82;4.32;;;;;;;;;;5089781;28;20048;-84
2023/07/25 07:49:04;;;;;;;5.75;4.68;;;;;;;;;;5088621;28;20051;-85
2023/07/25 07:51:31;;;;;;;6.15;4.60;;;;;;;;;;5086825;28;20044;-84
2023/07/25 07:53:59;;;;;;;6.03;4.45;;;;;;;;;;5095327;28;20036;-85
2023/07/25 07:56:25;;;;;;;5.20;4.03;;;;;;;;;;5084895;28;20090;-84
2023/07/25 07:58:54;;;;;;;5.13;4.15;;;;;;;;;;5086089;28;20045;-84
2023/07/25 08:01:22;;;;;;;5.57;3.55;;;;;;;;;;5084875;28;20063;-85
2023/07/25 08:03:49;;;;;;;6.47;3.90;;;;;;;;;;5087138;28;20109;-84
2023/07/25 08:06:15;;;;;;;5.25;3.95;;;;;;;;;;5084161;28;20056;-84
2023/07/25 08:08:42;;;;;;;5.47;4.28;;;;;;;;;;5086160;28;20056;-84
2023/07/25 08:11:10;;;;;;;6.10;4.22;;;;;;;;;;5094276;28;20045;-85
2023/07/25 08:13:38;;;;;;;6.47;4.70;;;;;;;;;;5097105;28;20060;-85
2023/07/25 08:16:07;;;;;;;6.65;4.45;;;;;;;;;;5097921;28;20115;-88
2023/07/25 08:18:34;;;;;;;6.03;4.82;;;;;;;;;;5091238;28;20056;-85
2023/07/25 08:21:04;;;;;;;5.68;4.70;;;;;;;;;;5098171;28;20047;-85
2023/07/25 08:23:31;;;;;;;7.03;4.90;;;;;;;;;;5092501;28;20060;-84
2023/07/25 08:25:58;;;;;;;6.93;5.28;;;;;;;;;;5082136;28;20082;-84
2023/07/25 08:28:25;;;;;;;7.20;5.28;;;;;;;;;;5087510;28;20045;-84
2023/07/25 08:30:59;;;;;;;7.05;5.35;;;;;;;;;;5094807;28;20549;-84
2023/07/25 08:33:28;;;;;;;6.22;5.38;;;;;;;;;;5091041;28;20050;-85
2023/07/25 08:35:55;;;;;;;7.30;5.47;;;;;;;;;;5084300;28;20044;-85
2023/07/25 08:38:22;;;;;;;6.97;5.60;;;;;;;;;;5077938;28;20048;-84
2023/07/25 08:40:56;;;;;;;6.28;5.20;;;;;;;;;;5096260;28;20040;-84
2023/07/25 08:43:25;;;;;;;7.55;5.70;;;;;;;;;;5088280;28;20040;-87
2023/07/25 08:45:52;;;;;;;7.30;5.35;;;;;;;;;;5090613;28;20036;-84
2023/07/25 08:48:21;;;;;;;7.25;5.95;;;;;;;;;;5084941;28;20048;-84
2023/07/25 08:50:53;;;;;;;6.07;4.88;;;;;;;;;;5093087;28;20051;-86
2023/07/25 08:53:23;;;;;;;5.90;5.22;;;;;;;;;;5085258;28;20048;-84
2023/07/25 08:55:51;;;;;;;5.78;4.85;;;;;;;;;;5082909;28;20044;-85
2023/07/25 08:58:18;;;;;;;6.55;5.55;;;;;;;;;;5091227;28;20410;-85
2023/07/25 09:00:46;;;;;;;7.22;5.72;;;;;;;;;;5098512;28;20101;-85
2023/07/25 09:03:13;;;;;;;6.38;5.38;;;;;;;;;;5089179;28;20108;-85
2023/07/25 09:05:41;;;;;;;7.80;5.93;;;;;;;;;;5084411;28;20047;-85
2023/07/25 09:08:09;;;;;;;7.90;5.97;;;;;;;;;;5088864;28;20407;-86
2023/07/25 09:10:36;;;;;;;7.00;5.50;;;;;;;;;;5089891;28;20074;-85
2023/07/25 09:13:03;;;;;;;6.75;5.00;;;;;;;;;;5097064;28;20237;-83
2023/07/25 09:15:30;;;;;;;7.95;5.15;;;;;;;;;;5098996;28;20090;-85
2023/07/25 09:17:56;;;;;;;5.47;4.72;;;;;;;;;;5098755;28;20040;-85
2023/07/25 09:20:26;;;;;;;6.80;5.25;;;;;;;;;;5088858;28;20124;-84
2023/07/25 09:22:53;;;;;;;7.50;5.35;;;;;;;;;;5097026;28;20052;-85
2023/07/25 09:25:22;;;;;;;6.82;4.93;;;;;;;;;;5098048;28;20044;-84
2023/07/25 09:27:50;;;;;;;6.72;4.82;;;;;;;;;;5095807;28;20040;-84
2023/07/25 09:30:17;;;;;;;6.47;4.97;;;;;;;;;;5089884;28;20051;-84
2023/07/25 09:32:47;;;;;;;6.32;5.28;;;;;;;;;;5091316;28;20045;-84
2023/07/25 09:35:14;;;;;;;6.50;4.90;;;;;;;;;;5068165;28;20045;-84
2023/07/25 09:37:41;;;;;;;6.95;5.60;;;;;;;;;;5096618;28;20404;-84
2023/07/25 09:40:10;;;;;;;7.72;5.63;;;;;;;;;;5089862;28;20040;-85
2023/07/25 09:42:42;;;;;;;6.75;5.25;;;;;;;;;;5097153;28;20671;-86
2023/07/25 09:45:11;;;;;;;7.88;5.60;;;;;;;;;;5093100;28;20055;-83
2023/07/25 09:47:39;;;;;;;7.53;5.68;;;;;;;;;;5083949;28;20072;-84
2023/07/25 09:50:07;;;;;;;7.40;5.55;;;;;;;;;;5070608;28;20047;-84
2023/07/25 09:52:39;;;;;;;6.85;5.60;;;;;;;;;;5103861;28;20059;-84
2023/07/25 09:55:06;;;;;;;7.38;6.07;;;;;;;;;;5105757;28;20544;-85
2023/07/25 09:57:33;;;;;;;7.57;6.18;;;;;;;;;;5104029;28;20139;-85
2023/07/25 10:00:04;;;;;;;8.48;6.15;;;;;;;;;;5102036;28;20079;-84
2023/07/25 10:02:31;;;;;;;8.57;6.65;;;;;;;;;;5102505;28;20131;-84
2023/07/25 10:04:59;;;;;;;9.18;6.53;;;;;;;;;;5102193;28;20043;-87
2023/07/25 10:07:26;;;;;;;8.65;6.28;;;;;;;;;;5101867;28;20282;-84
2023/07/25 10:09:53;;;;;;;7.82;6.13;;;;;;;;;;5102034;28;20530;-84
2023/07/25 10:12:20;;;;;;;7.88;6.03;;;;;;;;;;5103838;28;20122;-85
2023/07/25 10:14:46;;;;;;;7.97;6.45;;;;;;;;;;5103031;28;20048;-84
2023/07/25 10:17:15;;;;;;;9.43;6.50;;;;;;;;;;5101958;28;20044;-84
2023/07/25 10:19:53;;;;;;;9.85;6.13;;;;;;;;;;5102465;28;20052;-84
2023/07/25 10:22:36;;;;;;;8.25;5.95;;;;;;;;;;5105964;28;20104;-84
2023/07/25 10:25:03;;;;;;;8.00;6.10;;;;;;;;;;5103427;28;20048;-86
2023/07/25 10:27:29;;;;;;;8.73;6.60;;;;;;;;;;5103070;28;20427;-85
2023/07/25 10:30:00;;;;;;;8.07;6.40;;;;;;;;;;5111763;28;20044;-86
2023/07/25 10:35:53;;;;;;;7.45;6.03;;;;;;;;;;5073721;27;20402;-69
2023/07/25 10:38:33;;;;;;;7.40;5.50;;;;;;;;;;5082461;28;20050;-69
2023/07/25 10:41:01;;;;;;;6.40;5.80;;;;;;;;;;5086831;28;20135;-69
2023/07/25 10:43:29;;;;;;;7.50;5.45;;;;;;;;;;5087600;28;20055;-69
2023/07/25 10:45:59;;;;;;;9.95;6.22;;;;;;;;;;5066936;28;20144;-69
2023/07/25 10:48:45;;;;;;;7.70;5.72;;;;;;;;;;5067382;28;20055;-69
2023/07/25 10:51:13;;;;;;;7.45;5.90;;;;;;;;;;5066278;28;20490;-69
2023/07/25 10:53:41;;;;;;;7.03;5.68;;;;;;;;;;5066901;28;20052;-69
2023/07/25 10:56:17;;;;;;;7.18;6.07;;;;;;;;;;5066198;28;20045;-70
2023/07/25 10:59:06;;;;;;;9.07;6.55;;;;;;;;;;5067135;28;20056;-69
2023/07/25 11:01:36;;;;;;;7.72;6.22;;;;;;;;;;5065324;28;20410;-69
2023/07/25 11:04:28;;;;;;;7.25;6.45;;;;;;;;;;5066175;28;20102;-69
2023/07/25 11:06:56;;;;;;;;;;;;;;;;;;5065058;28;20454;-69
2023/07/25 11:09:25;;;;;;;7.68;5.90;;;;;;;;;;5066515;28;19927;-69
2023/07/25 11:11:54;;;;;;;9.13;5.95;;;;;;;;;;5065442;28;20413;-67
2023/07/25 11:14:22;;;;;;;10.35;6.07;;;;;;;;;;5065826;28;20059;-67
2023/07/25 11:16:51;;;;;;;7.13;5.75;;;;;;;;;;5063394;28;20045;-67
2023/07/25 11:19:19;;;;;;;7.60;6.05;;;;;;;;;;5064931;28;20052;-68
2023/07/25 11:21:46;;;;;;;6.95;5.72;;;;;;;;;;5066041;28;20045;-68
2023/07/25 11:24:13;;;;;;;10.05;6.78;;;;;;;;;;5065564;28;20052;-68
2023/07/25 11:26:43;;;;;;;9.98;5.90;;;;;;;;;;5066531;28;20141;-69
2023/07/25 11:29:13;;;;;;;7.90;6.50;;;;;;;;;;5066051;28;20487;-69
2023/07/25 11:31:46;;;;;;;9.18;5.85;;;;;;;;;;5064786;28;20406;-69
2023/07/25 11:34:15;;;;;;;7.60;5.95;;;;;;;;;;5065793;28;20059;-69
2023/07/25 11:36:43;;;;;;;7.53;6.47;;;;;;;;;;5064752;28;20516;-68
2023/07/25 11:39:11;;;;;;;6.30;5.70;;;;;;;;;;5065477;28;20045;-69
2023/07/25 11:41:38;;;;;;;7.38;5.95;;;;;;;;;;5065139;28;20055;-69
2023/07/25 11:44:13;;;;;;;7.63;5.90;;;;;;;;;;5065892;28;20053;-69
2023/07/25 11:46:42;;;;;;;6.75;5.78;;;;;;;;;;5052805;28;20044;-69
2023/07/25 11:49:10;;;;;;;7.47;5.75;;;;;;;;;;5052836;28;20372;-69
2023/07/25 11:51:37;;;;;;;5.93;5.43;;;;;;;;;;5051316;28;20052;-68
2023/07/25 11:54:06;;;;;;;6.35;5.75;;;;;;;;;;5044819;28;20047;-68
2023/07/25 11:56:33;;;;;;;6.38;5.70;;;;;;;;;;5045608;28;20438;-68
2023/07/25 11:59:00;;;;;;;9.05;6.35;;;;;;;;;;5043654;28;20047;-68
2023/07/25 12:01:30;;;;;;;8.02;5.85;;;;;;;;;;5048874;28;20045;-68
2023/07/25 12:04:00;;;;;;;7.03;5.75;;;;;;;;;;5046256;28;20156;-68
2023/07/25 12:06:27;;;;;;;9.43;6.05;;;;;;;;;;5044738;28;20388;-69
2023/07/25 12:08:54;;;;;;;6.50;5.90;;;;;;;;;;5049953;28;20040;-68
2023/07/25 12:11:22;;;;;;;7.07;5.90;;;;;;;;;;5044377;28;20487;-68
2023/07/25 12:13:49;;;;;;;6.88;6.18;;;;;;;;;;5046343;28;20046;-68
2023/07/25 12:16:28;;;;;;;6.75;6.05;;;;;;;;;;5038127;28;20415;-68
2023/07/25 12:18:57;;;;;;;6.97;6.28;;;;;;;;;;5040558;28;20107;-68
2023/07/25 12:21:27;;;;;;;9.13;7.10;;;;;;;;;;5047273;28;20141;-68
2023/07/25 12:23:55;;;;;;;8.45;6.30;;;;;;;;;;5050290;28;20049;-69
2023/07/25 12:26:22;;;;;;;8.10;6.30;;;;;;;;;;5036113;28;20538;-67
2023/07/25 12:28:50;;;;;;;6.70;6.00;;;;;;;;;;5049967;28;20041;-67
2023/07/25 12:31:16;;;;;;;6.05;5.45;;;;;;;;;;5047689;28;20724;-67
2023/07/25 12:33:44;;;;;;;7.78;5.32;;;;;;;;;;5049703;28;20581;-67
2023/07/25 12:36:13;;;;;;;10.63;5.60;;;;;;;;;;5044156;28;20072;-68
2023/07/25 12:38:39;;;;;;;6.07;5.25;;;;;;;;;;5043024;28;20045;-68
2023/07/25 12:41:06;;;;;;;7.78;5.53;;;;;;;;;;5041609;28;20041;-68
2023/07/25 12:43:32;;;;;;;6.78;6.05;;;;;;;;;;5037842;28;20051;-68
2023/07/25 12:45:59;;;;;;;7.13;5.18;;;;;;;;;;5047625;28;20045;-69
2023/07/25 12:48:26;;;;;;;6.05;4.70;;;;;;;;;;5047553;28;20041;-69
2023/07/25 12:50:52;;;;;;;5.38;4.80;;;;;;;;;;5049839;28;20127;-69
2023/07/25 12:53:20;;;;;;;9.10;4.50;;;;;;;;;;5048377;28;20334;-69
2023/07/25 12:55:48;;;;;;;7.45;4.90;;;;;;;;;;5047723;28;20048;-69
2023/07/25 12:58:15;;;;;;;9.20;4.93;;;;;;;;;;5046280;28;20041;-69
2023/07/25 13:00:42;;;;;;;7.25;4.35;;;;;;;;;;5044242;28;20056;-68
2023/07/25 13:03:09;;;;;;;5.47;4.75;;;;;;;;;;5047729;28;20126;-68
2023/07/25 13:05:35;;;;;;;8.30;5.30;;;;;;;;;;5047900;28;20103;-68
2023/07/25 13:08:02;;;;;;;5.63;5.07;;;;;;;;;;5048212;28;20123;-68
2023/07/25 13:10:30;;;;;;;7.38;5.20;;;;;;;;;;5047342;28;20567;-68
2023/07/25 13:12:57;;;;;;;5.32;4.75;;;;;;;;;;5049298;28;20045;-68
2023/07/25 13:15:23;;;;;;;5.65;5.15;;;;;;;;;;5049794;28;20509;-68
2023/07/25 13:17:50;;;;;;;6.78;5.25;;;;;;;;;;5046422;28;20037;-68
2023/07/25 13:20:16;;;;;;;8.20;5.05;;;;;;;;;;5048926;28;20055;-68
2023/07/25 13:22:43;;;;;;;6.57;5.03;;;;;;;;;;5048150;28;20037;-68
2023/07/25 13:25:11;;;;;;;6.43;5.75;;;;;;;;;;5045695;28;20049;-68
2023/07/25 13:27:39;;;;;;;7.47;5.55;;;;;;;;;;5046935;28;20069;-68
2023/07/25 13:30:06;;;;;;;6.60;5.80;;;;;;;;;;5047230;28;20051;-68
2023/07/25 13:32:33;;;;;;;9.18;5.70;;;;;;;;;;5049020;28;20049;-68
2023/07/25 13:35:00;;;;;;;7.85;5.90;;;;;;;;;;5047909;28;20040;-68
2023/07/25 13:37:26;;;;;;;6.45;5.60;;;;;;;;;;5049525;28;20045;-68
2023/07/25 13:39:53;;;;;;;9.55;6.35;;;;;;;;;;5047224;28;20048;-68
2023/07/25 13:42:22;;;;;;;7.07;5.95;;;;;;;;;;5049819;28;20052;-68
2023/07/25 13:44:50;;;;;;;7.57;5.90;;;;;;;;;;5048821;28;20124;-68
2023/07/25 13:47:16;;;;;;;7.38;6.15;;;;;;;;;;5046732;28;20053;-68
2023/07/25 13:49:43;;;;;;;7.63;6.88;;;;;;;;;;5047904;28;20087;-68
2023/07/25 13:52:10;;;;;;;7.70;6.15;;;;;;;;;;5048907;28;20045;-68
2023/07/25 13:54:37;;;;;;;8.13;6.47;;;;;;;;;;5048325;28;20053;-68
2023/07/25 13:57:04;;;;;;;7.93;6.32;;;;;;;;;;5042150;28;20479;-68
2023/07/25 13:59:30;;;;;;;7.82;7.00;;;;;;;;;;5047489;28;20483;-68
2023/07/25 14:02:00;;;;;;;7.65;6.57;;;;;;;;;;5046120;28;20571;-68
2023/07/25 14:04:28;;;;;;;9.57;6.95;;;;;;;;;;5046293;28;20416;-68
2023/07/25 14:06:55;;;;;;;7.47;6.15;;;;;;;;;;5044468;28;20107;-68
2023/07/25 14:09:21;;;;;;;9.07;6.40;;;;;;;;;;5044395;28;20045;-68
2023/07/25 14:11:48;;;;;;;7.82;6.75;;;;;;;;;;5049221;28;20517;-68
2023/07/25 14:14:15;;;;;;;5.68;5.13;;;;;;;;;;5049491;28;20132;-68
2023/07/25 14:16:42;;;;;;;7.53;6.68;;;;;;;;;;5049186;28;20465;-68
2023/07/25 14:19:10;;;;;;;6.85;6.18;;;;;;;;;;5049907;28;20045;-68
2023/07/25 14:21:37;;;;;;;8.93;6.72;;;;;;;;;;5049653;28;20056;-68
2023/07/25 14:24:03;;;;;;;7.30;6.55;;;;;;;;;;5049908;28;20041;-68
2023/07/25 14:26:31;;;;;;;6.97;5.03;;;;;;;;;;5049375;28;20049;-68
2023/07/25 14:28:57;;;;;;;5.28;4.78;;;;;;;;;;5049120;28;20053;-68
2023/07/25 14:31:25;;;;;;;4.93;4.22;;;;;;;;;;5046556;28;20072;-68
2023/07/25 14:33:51;;;;;;;7.47;4.50;;;;;;;;;;5049640;28;20131;-68
2023/07/25 14:36:19;;;;;;;6.45;4.50;;;;;;;;;;5049581;28;20045;-68
2023/07/25 14:38:46;;;;;;;7.38;4.63;;;;;;;;;;5049440;28;20048;-68
2023/07/25 14:41:12;;;;;;;5.63;4.05;;;;;;;;;;5049767;28;20508;-68
2023/07/25 14:43:39;;;;;;;7.72;3.95;;;;;;;;;;5049106;28;20045;-68
2023/07/25 14:46:05;;;;;;;6.50;4.82;;;;;;;;;;5049953;28;20402;-68
2023/07/25 14:48:32;;;;;;;8.40;4.93;;;;;;;;;;5049389;28;20511;-69